createdAt,value
2022-10-09T00:00:29.319Z,858.35
2022-10-09T00:01:29.311Z,858.31
2022-10-09T00:02:29.404Z,858.35
2022-10-09T00:03:29.309Z,858.33
2022-10-09T00:04:29.268Z,858.31
2022-10-09T00:05:29.407Z,858.30
2022-10-09T00:06:29.252Z,858.30
2022-10-09T00:07:29.238Z,858.34
2022-10-09T00:08:29.238Z,858.30
2022-10-09T00:09:29.282Z,858.25
2022-10-09T00:10:29.203Z,858.30
2022-10-09T00:11:29.195Z,858.30
2022-10-09T00:12:29.182Z,858.28
2022-10-09T00:13:29.170Z,858.28
2022-10-09T00:14:29.175Z,858.26
2022-10-09T00:15:29.210Z,858.30
2022-10-09T00:16:29.268Z,858.29
2022-10-09T00:17:29.126Z,858.29
2022-10-09T00:18:29.119Z,858.27
2022-10-09T00:19:29.109Z,858.27
2022-10-09T00:20:29.204Z,858.24
2022-10-09T00:21:29.145Z,858.25
2022-10-09T00:22:29.073Z,858.25
2022-10-09T00:23:29.068Z,858.22
2022-10-09T00:24:29.053Z,858.20
2022-10-09T00:25:29.046Z,858.18
2022-10-09T00:26:29.046Z,858.18
2022-10-09T00:27:29.090Z,858.18
2022-10-09T00:28:29.082Z,858.15
2022-10-09T00:29:28.999Z,858.14
2022-10-09T00:30:29.067Z,858.12
2022-10-09T00:31:28.996Z,858.13
2022-10-09T00:32:28.965Z,858.14
2022-10-09T00:33:28.960Z,858.13
2022-10-09T00:34:28.956Z,858.15
2022-10-09T00:35:28.934Z,858.12
2022-10-09T00:36:28.925Z,858.15
2022-10-09T00:37:28.936Z,858.14
2022-10-09T00:38:28.898Z,858.08
2022-10-09T00:39:28.903Z,858.10
2022-10-09T00:40:28.890Z,858.08
2022-10-09T00:41:28.878Z,858.07
2022-10-09T00:42:28.856Z,858.09
2022-10-09T00:43:28.842Z,858.09
2022-10-09T00:44:28.838Z,858.09
2022-10-09T00:45:28.822Z,858.07
2022-10-09T00:46:28.907Z,858.10
2022-10-09T00:47:28.804Z,858.12
2022-10-09T00:48:28.790Z,858.07
2022-10-09T00:49:28.776Z,858.09
2022-10-09T00:50:28.854Z,858.08
2022-10-09T00:51:28.761Z,858.05
2022-10-09T00:52:28.744Z,858.08
2022-10-09T00:53:28.759Z,858.06
2022-10-09T00:54:28.730Z,858.02
2022-10-09T00:55:28.716Z,858.07
2022-10-09T00:56:28.735Z,858.08
2022-10-09T00:57:28.690Z,858.09
2022-10-09T00:58:28.681Z,858.09
2022-10-09T00:59:28.673Z,858.07
2022-10-09T01:00:28.659Z,858.12
2022-10-09T01:01:28.733Z,858.07
2022-10-09T01:02:28.689Z,858.09
2022-10-09T01:03:28.628Z,858.08
2022-10-09T01:04:28.616Z,858.07
2022-10-09T01:05:28.607Z,858.07
2022-10-09T01:06:28.599Z,858.05
2022-10-09T01:07:28.600Z,858.06
2022-10-09T01:08:28.603Z,858.06
2022-10-09T01:09:28.596Z,858.06
2022-10-09T01:10:28.556Z,858.05
2022-10-09T01:11:28.547Z,858.02
2022-10-09T01:12:28.531Z,857.97
2022-10-09T01:13:28.540Z,857.98
2022-10-09T01:14:28.586Z,857.95
2022-10-09T01:15:28.570Z,857.92
2022-10-09T01:16:28.517Z,857.90
2022-10-09T01:17:28.492Z,857.95
2022-10-09T01:18:28.476Z,857.90
2022-10-09T01:19:28.459Z,857.92
2022-10-09T01:20:28.524Z,857.83
2022-10-09T01:21:28.437Z,857.90
2022-10-09T01:22:28.426Z,857.89
2022-10-09T01:23:28.433Z,857.86
2022-10-09T01:24:28.405Z,857.85
2022-10-09T01:25:28.434Z,857.85
2022-10-09T01:26:28.409Z,857.84
2022-10-09T01:27:28.384Z,857.89
2022-10-09T01:28:28.462Z,857.86
2022-10-09T01:29:28.355Z,857.84
2022-10-09T01:30:28.344Z,857.82
2022-10-09T01:31:28.403Z,857.83
2022-10-09T01:32:28.404Z,857.88
2022-10-09T01:33:28.310Z,857.83
2022-10-09T01:34:28.333Z,857.90
2022-10-09T01:35:28.289Z,857.92
2022-10-09T01:36:28.283Z,857.91
2022-10-09T01:37:28.267Z,857.92
2022-10-09T01:38:28.320Z,857.90
2022-10-09T01:39:28.249Z,857.91
2022-10-09T01:40:28.247Z,857.94
2022-10-09T01:41:28.254Z,857.92
2022-10-09T01:42:28.215Z,857.89
2022-10-09T01:43:28.207Z,857.88
2022-10-09T01:44:28.221Z,857.90
2022-10-09T01:45:28.185Z,857.89
2022-10-09T01:46:28.285Z,857.81
2022-10-09T01:47:28.167Z,857.80
2022-10-09T01:48:28.150Z,857.80
2022-10-09T01:49:28.142Z,857.79
2022-10-09T01:50:28.204Z,857.81
2022-10-09T01:51:28.148Z,857.79
2022-10-09T01:52:28.121Z,857.76
2022-10-09T01:53:28.103Z,857.76
2022-10-09T01:54:28.090Z,857.75
2022-10-09T01:55:28.077Z,857.73
2022-10-09T01:56:28.110Z,857.74
2022-10-09T01:57:28.082Z,857.73
2022-10-09T01:58:28.058Z,857.71
2022-10-09T01:59:28.033Z,857.74
2022-10-09T02:00:28.035Z,857.68
2022-10-09T02:01:28.039Z,857.68
2022-10-09T02:02:28.171Z,857.72
2022-10-09T02:03:27.991Z,857.72
2022-10-09T02:04:27.982Z,857.71
2022-10-09T02:05:27.971Z,857.73
2022-10-09T02:06:27.966Z,857.73
2022-10-09T02:07:27.949Z,857.72
2022-10-09T02:08:27.985Z,857.71
2022-10-09T02:09:27.931Z,857.71
2022-10-09T02:10:27.914Z,857.69
2022-10-09T02:11:27.906Z,857.71
2022-10-09T02:12:27.895Z,857.70
2022-10-09T02:13:27.909Z,857.71
2022-10-09T02:14:27.934Z,857.72
2022-10-09T02:15:27.863Z,857.70
2022-10-09T02:16:27.851Z,857.70
2022-10-09T02:17:27.840Z,857.70
2022-10-09T02:18:27.829Z,857.72
2022-10-09T02:19:27.824Z,857.77
2022-10-09T02:20:27.958Z,857.74
2022-10-09T02:21:27.799Z,857.78
2022-10-09T02:22:27.789Z,857.72
2022-10-09T02:23:27.782Z,857.78
2022-10-09T02:24:27.770Z,857.78
2022-10-09T02:25:27.755Z,857.74
2022-10-09T02:26:27.806Z,857.81
2022-10-09T02:27:27.733Z,857.79
2022-10-09T02:28:27.769Z,857.80
2022-10-09T02:29:27.737Z,857.78
2022-10-09T02:30:27.722Z,857.74
2022-10-09T02:31:27.818Z,857.76
2022-10-09T02:32:27.757Z,857.79
2022-10-09T02:33:27.672Z,857.79
2022-10-09T02:34:27.659Z,857.76
2022-10-09T02:35:27.667Z,857.77
2022-10-09T02:36:27.640Z,857.81
2022-10-09T02:37:27.657Z,857.78
2022-10-09T02:38:27.726Z,857.82
2022-10-09T02:39:27.622Z,857.79
2022-10-09T02:40:27.599Z,857.80
2022-10-09T02:41:27.589Z,857.78
2022-10-09T02:42:27.591Z,857.79
2022-10-09T02:43:27.576Z,857.76
2022-10-09T02:44:27.632Z,857.76
2022-10-09T02:45:27.569Z,857.79
2022-10-09T02:46:27.590Z,857.77
2022-10-09T02:47:27.537Z,857.75
2022-10-09T02:48:27.515Z,857.78
2022-10-09T02:49:27.509Z,857.75
2022-10-09T02:50:27.557Z,857.76
2022-10-09T02:51:27.487Z,857.77
2022-10-09T02:52:27.471Z,857.73
2022-10-09T02:53:27.475Z,857.75
2022-10-09T02:54:27.463Z,857.76
2022-10-09T02:55:27.440Z,857.75
2022-10-09T02:56:27.483Z,857.80
2022-10-09T02:57:27.418Z,857.75
2022-10-09T02:58:27.408Z,857.76
2022-10-09T02:59:27.415Z,857.79
2022-10-09T03:00:27.437Z,857.78
2022-10-09T03:01:27.441Z,857.76
2022-10-09T03:02:27.519Z,857.77
2022-10-09T03:03:27.354Z,857.77
2022-10-09T03:04:27.349Z,857.74
2022-10-09T03:05:27.357Z,857.79
2022-10-09T03:06:27.326Z,857.75
2022-10-09T03:07:27.314Z,857.73
2022-10-09T03:08:27.369Z,857.71
2022-10-09T03:09:30.288Z,857.69
2022-10-09T03:10:28.285Z,857.68
2022-10-09T03:11:27.272Z,857.68
2022-10-09T03:12:27.257Z,857.68
2022-10-09T03:13:27.249Z,857.65
2022-10-09T03:14:27.290Z,857.66
2022-10-09T03:15:27.234Z,857.65
2022-10-09T03:16:27.300Z,857.58
2022-10-09T03:17:27.228Z,857.60
2022-10-09T03:18:27.191Z,857.65
2022-10-09T03:19:27.181Z,857.61
2022-10-09T03:20:27.240Z,857.68
2022-10-09T03:21:27.178Z,857.64
2022-10-09T03:22:27.196Z,857.61
2022-10-09T03:23:27.137Z,857.65
2022-10-09T03:24:27.145Z,857.65
2022-10-09T03:25:27.116Z,857.66
2022-10-09T03:26:27.131Z,857.63
2022-10-09T03:27:27.093Z,857.65
2022-10-09T03:28:27.151Z,857.65
2022-10-09T03:29:27.070Z,857.64
2022-10-09T03:30:27.082Z,857.58
2022-10-09T03:31:50.673Z,857.60
2022-10-09T03:32:28.197Z,857.61
2022-10-09T03:33:27.067Z,857.57
2022-10-09T03:34:27.019Z,857.62
2022-10-09T03:35:27.006Z,857.59
2022-10-09T03:36:26.998Z,857.64
2022-10-09T03:37:26.994Z,857.61
2022-10-09T03:38:26.975Z,857.58
2022-10-09T03:39:26.975Z,857.60
2022-10-09T03:40:26.959Z,857.57
2022-10-09T03:41:26.946Z,857.57
2022-10-09T03:42:26.940Z,857.60
2022-10-09T03:43:26.931Z,857.59
2022-10-09T03:44:26.923Z,857.58
2022-10-09T03:45:26.903Z,857.56
2022-10-09T03:46:26.971Z,857.54
2022-10-09T03:47:26.980Z,857.61
2022-10-09T03:48:26.865Z,857.58
2022-10-09T03:49:26.877Z,857.56
2022-10-09T03:50:26.850Z,857.57
2022-10-09T03:51:26.836Z,857.53
2022-10-09T03:52:26.822Z,857.54
2022-10-09T03:53:26.820Z,857.54
2022-10-09T03:54:26.819Z,857.59
2022-10-09T03:55:26.848Z,857.57
2022-10-09T03:56:26.784Z,857.59
2022-10-09T03:57:26.771Z,857.58
2022-10-09T03:58:26.763Z,857.58
2022-10-09T03:59:26.750Z,857.59
2022-10-09T04:00:26.751Z,857.57
2022-10-09T04:01:26.857Z,857.59
2022-10-09T04:02:26.801Z,857.64
2022-10-09T04:03:26.710Z,857.60
2022-10-09T04:04:26.705Z,857.63
2022-10-09T04:05:26.715Z,857.68
2022-10-09T04:06:26.685Z,857.62
2022-10-09T04:07:26.684Z,857.64
2022-10-09T04:08:26.652Z,857.65
2022-10-09T04:09:26.643Z,857.60
2022-10-09T04:10:26.631Z,857.62
2022-10-09T04:11:26.630Z,857.62
2022-10-09T04:12:26.624Z,857.63
2022-10-09T04:13:26.695Z,857.56
2022-10-09T04:14:26.591Z,857.59
2022-10-09T04:15:26.578Z,857.57
2022-10-09T04:16:26.739Z,857.58
2022-10-09T04:17:26.568Z,857.58
2022-10-09T04:18:26.544Z,857.55
2022-10-09T04:19:26.606Z,857.52
2022-10-09T04:20:26.520Z,857.54
2022-10-09T04:21:26.653Z,857.49
2022-10-09T04:22:26.507Z,857.54
2022-10-09T04:23:26.506Z,857.58
2022-10-09T04:24:26.514Z,857.49
2022-10-09T04:25:26.552Z,857.53
2022-10-09T04:26:26.462Z,857.54
2022-10-09T04:27:26.446Z,857.47
2022-10-09T04:28:26.537Z,857.47
2022-10-09T04:29:26.430Z,857.51
2022-10-09T04:30:26.412Z,857.45
2022-10-09T04:31:26.472Z,857.46
2022-10-09T04:32:26.390Z,857.48
2022-10-09T04:33:26.394Z,857.49
2022-10-09T04:34:26.377Z,857.49
2022-10-09T04:35:26.373Z,857.52
2022-10-09T04:36:26.362Z,857.52
2022-10-09T04:37:26.373Z,857.56
2022-10-09T04:38:26.551Z,857.54
2022-10-09T04:39:26.425Z,857.56
2022-10-09T04:40:26.305Z,857.55
2022-10-09T04:41:26.312Z,857.56
2022-10-09T04:42:26.287Z,857.53
2022-10-09T04:43:26.349Z,857.55
2022-10-09T04:44:26.264Z,857.56
2022-10-09T04:45:26.358Z,857.57
2022-10-09T04:46:26.251Z,857.59
2022-10-09T04:47:26.233Z,857.58
2022-10-09T04:48:26.221Z,857.60
2022-10-09T04:49:26.299Z,857.63
2022-10-09T04:50:26.193Z,857.65
2022-10-09T04:51:26.197Z,857.66
2022-10-09T04:52:26.207Z,857.67
2022-10-09T04:53:26.187Z,857.67
2022-10-09T04:54:26.154Z,857.68
2022-10-09T04:55:26.173Z,857.68
2022-10-09T04:56:26.146Z,857.71
2022-10-09T04:57:26.121Z,857.67
2022-10-09T04:58:26.114Z,857.71
2022-10-09T04:59:26.104Z,857.71
2022-10-09T05:00:26.094Z,857.67
2022-10-09T05:01:26.191Z,857.69
2022-10-09T05:02:26.221Z,857.69
2022-10-09T05:03:26.067Z,857.69
2022-10-09T05:04:26.054Z,857.63
2022-10-09T05:05:26.042Z,857.63
2022-10-09T05:06:26.089Z,857.64
2022-10-09T05:07:26.074Z,857.61
2022-10-09T05:08:26.009Z,857.66
2022-10-09T05:09:26.022Z,857.68
2022-10-09T05:10:25.987Z,857.62
2022-10-09T05:11:25.995Z,857.66
2022-10-09T05:12:25.965Z,857.63
2022-10-09T05:13:25.959Z,857.59
2022-10-09T05:14:25.957Z,857.55
2022-10-09T05:15:25.933Z,857.53
2022-10-09T05:16:25.974Z,857.52
2022-10-09T05:17:26.025Z,857.51
2022-10-09T05:18:25.904Z,857.50
2022-10-09T05:19:25.907Z,857.50
2022-10-09T05:20:25.890Z,857.49
2022-10-09T05:21:25.871Z,857.51
2022-10-09T05:22:25.912Z,857.48
2022-10-09T05:23:25.849Z,857.46
2022-10-09T05:24:25.841Z,857.49
2022-10-09T05:25:25.926Z,857.53
2022-10-09T05:26:25.832Z,857.51
2022-10-09T05:27:25.808Z,857.49
2022-10-09T05:28:25.899Z,857.57
2022-10-09T05:29:25.786Z,857.48
2022-10-09T05:30:25.777Z,857.42
2022-10-09T05:31:25.953Z,857.50
2022-10-09T05:32:25.756Z,857.46
2022-10-09T05:33:25.742Z,857.45
2022-10-09T05:34:25.741Z,857.42
2022-10-09T05:35:25.721Z,857.48
2022-10-09T05:36:25.715Z,857.46
2022-10-09T05:37:25.754Z,857.43
2022-10-09T05:38:25.692Z,857.42
2022-10-09T05:39:25.686Z,857.42
2022-10-09T05:40:29.101Z,857.43
2022-10-09T05:41:25.683Z,857.41
2022-10-09T05:42:25.664Z,857.46
2022-10-09T05:43:25.705Z,857.40
2022-10-09T05:44:25.626Z,857.40
2022-10-09T05:45:25.615Z,857.41
2022-10-09T05:46:25.604Z,857.40
2022-10-09T05:47:25.599Z,857.40
2022-10-09T05:48:25.596Z,857.40
2022-10-09T05:49:25.582Z,857.38
2022-10-09T05:50:25.567Z,857.39
2022-10-09T05:51:25.553Z,857.42
2022-10-09T05:52:25.546Z,857.39
2022-10-09T05:53:25.529Z,857.40
2022-10-09T05:54:25.535Z,857.39
2022-10-09T05:55:25.570Z,857.41
2022-10-09T05:56:25.503Z,857.45
2022-10-09T05:57:25.571Z,857.41
2022-10-09T05:58:25.483Z,857.39
2022-10-09T05:59:25.482Z,857.42
2022-10-09T06:00:25.457Z,857.43
2022-10-09T06:01:25.557Z,857.41
2022-10-09T06:02:25.539Z,857.42
2022-10-09T06:03:25.431Z,857.39
2022-10-09T06:04:25.430Z,857.41
2022-10-09T06:05:25.418Z,857.41
2022-10-09T06:06:25.393Z,857.39
2022-10-09T06:07:25.441Z,857.44
2022-10-09T06:08:25.371Z,857.44
2022-10-09T06:09:25.398Z,857.45
2022-10-09T06:10:29.014Z,857.45
2022-10-09T06:11:26.340Z,857.47
2022-10-09T06:12:25.338Z,857.45
2022-10-09T06:13:25.397Z,857.44
2022-10-09T06:14:25.334Z,857.45
2022-10-09T06:15:25.298Z,857.44
2022-10-09T06:16:25.360Z,857.48
2022-10-09T06:17:25.282Z,857.54
2022-10-09T06:18:25.269Z,857.49
2022-10-09T06:19:25.326Z,857.49
2022-10-09T06:20:25.261Z,857.56
2022-10-09T06:21:25.238Z,857.50
2022-10-09T06:22:25.225Z,857.53
2022-10-09T06:23:25.230Z,857.54
2022-10-09T06:24:28.752Z,857.56
2022-10-09T06:25:25.305Z,857.56
2022-10-09T06:26:25.211Z,857.57
2022-10-09T06:27:25.173Z,857.53
2022-10-09T06:28:25.274Z,857.54
2022-10-09T06:29:25.192Z,857.57
2022-10-09T06:30:25.143Z,857.51
2022-10-09T06:31:25.234Z,857.52
2022-10-09T06:32:25.125Z,857.49
2022-10-09T06:33:25.122Z,857.49
2022-10-09T06:34:25.098Z,857.48
2022-10-09T06:35:25.102Z,857.53
2022-10-09T06:36:25.079Z,857.53
2022-10-09T06:37:25.086Z,857.53
2022-10-09T06:38:25.056Z,857.56
2022-10-09T06:39:25.044Z,857.55
2022-10-09T06:40:25.036Z,857.55
2022-10-09T06:41:25.032Z,857.58
2022-10-09T06:42:25.012Z,857.63
2022-10-09T06:43:25.076Z,857.65
2022-10-09T06:44:24.993Z,857.61
2022-10-09T06:45:25.230Z,857.61
2022-10-09T06:46:25.027Z,857.60
2022-10-09T06:47:24.965Z,857.59
2022-10-09T06:48:24.956Z,857.63
2022-10-09T06:49:24.969Z,857.60
2022-10-09T06:50:24.931Z,857.61
2022-10-09T06:51:24.935Z,857.63
2022-10-09T06:52:24.906Z,857.63
2022-10-09T06:53:24.900Z,857.63
2022-10-09T06:54:24.888Z,857.66
2022-10-09T06:55:28.568Z,857.70
2022-10-09T06:56:24.863Z,857.66
2022-10-09T06:57:24.881Z,857.67
2022-10-09T06:58:24.847Z,857.66
2022-10-09T06:59:24.840Z,857.69
2022-10-09T07:00:24.826Z,857.73
2022-10-09T07:01:24.909Z,857.71
2022-10-09T07:02:24.861Z,857.70
2022-10-09T07:03:24.808Z,857.73
2022-10-09T07:04:24.786Z,857.68
2022-10-09T07:05:24.773Z,857.74
2022-10-09T07:06:24.764Z,857.69
2022-10-09T07:07:24.818Z,857.76
2022-10-09T07:08:24.749Z,857.73
2022-10-09T07:09:24.725Z,857.79
2022-10-09T07:10:25.444Z,857.78
2022-10-09T07:11:24.706Z,857.76
2022-10-09T07:12:24.696Z,857.75
2022-10-09T07:13:24.782Z,857.74
2022-10-09T07:14:24.685Z,857.78
2022-10-09T07:15:24.665Z,857.76
2022-10-09T07:16:24.745Z,857.80
2022-10-09T07:17:24.663Z,857.80
2022-10-09T07:18:24.631Z,857.80
2022-10-09T07:19:24.684Z,857.83
2022-10-09T07:20:24.608Z,857.83
2022-10-09T07:21:24.596Z,857.80
2022-10-09T07:22:26.976Z,857.81
2022-10-09T07:23:24.578Z,857.84
2022-10-09T07:24:24.613Z,857.83
2022-10-09T07:25:24.621Z,857.84
2022-10-09T07:26:24.544Z,857.80
2022-10-09T07:27:24.533Z,857.86
2022-10-09T07:28:24.570Z,857.83
2022-10-09T07:29:24.513Z,857.81
2022-10-09T07:30:24.522Z,857.88
2022-10-09T07:31:24.556Z,857.87
2022-10-09T07:32:24.508Z,857.83
2022-10-09T07:33:24.497Z,857.85
2022-10-09T07:34:24.458Z,857.87
2022-10-09T07:35:24.451Z,857.85
2022-10-09T07:36:24.469Z,857.83
2022-10-09T07:37:24.440Z,857.83
2022-10-09T07:38:24.424Z,857.83
2022-10-09T07:39:24.410Z,857.78
2022-10-09T07:40:24.393Z,857.81
2022-10-09T07:41:24.405Z,857.78
2022-10-09T07:42:24.374Z,857.75
2022-10-09T07:43:24.426Z,857.77
2022-10-09T07:44:24.357Z,857.80
2022-10-09T07:45:24.343Z,857.82
2022-10-09T07:46:24.411Z,857.81
2022-10-09T07:47:24.338Z,857.87
2022-10-09T07:48:24.312Z,857.85
2022-10-09T07:49:24.336Z,857.86
2022-10-09T07:50:24.292Z,857.88
2022-10-09T07:51:24.287Z,857.89
2022-10-09T07:52:24.270Z,857.88
2022-10-09T07:53:24.260Z,857.93
2022-10-09T07:54:24.245Z,857.87
2022-10-09T07:55:24.257Z,857.89
2022-10-09T07:56:24.246Z,857.88
2022-10-09T07:57:24.215Z,857.90
2022-10-09T07:58:24.204Z,857.87
2022-10-09T07:59:24.231Z,857.93
2022-10-09T08:00:24.261Z,857.91
2022-10-09T08:01:24.250Z,857.91
2022-10-09T08:02:24.233Z,857.87
2022-10-09T08:03:24.146Z,857.89
2022-10-09T08:04:24.140Z,857.91
2022-10-09T08:05:24.362Z,857.88
2022-10-09T08:06:24.124Z,857.90
2022-10-09T08:07:24.167Z,857.89
2022-10-09T08:08:24.094Z,857.92
2022-10-09T08:09:24.291Z,857.90
2022-10-09T08:10:24.130Z,857.87
2022-10-09T08:11:24.066Z,857.89
2022-10-09T08:12:24.065Z,857.87
2022-10-09T08:13:24.040Z,857.84
2022-10-09T08:14:24.024Z,857.85
2022-10-09T08:15:24.011Z,857.90
2022-10-09T08:16:24.000Z,857.88
2022-10-09T08:17:23.994Z,857.87
2022-10-09T08:18:23.990Z,857.88
2022-10-09T08:19:24.009Z,857.92
2022-10-09T08:20:24.072Z,857.88
2022-10-09T08:21:23.987Z,857.89
2022-10-09T08:22:23.933Z,857.93
2022-10-09T08:23:23.940Z,857.93
2022-10-09T08:24:23.923Z,857.94
2022-10-09T08:25:23.970Z,857.95
2022-10-09T08:26:23.937Z,857.95
2022-10-09T08:27:23.884Z,857.95
2022-10-09T08:28:23.936Z,857.96
2022-10-09T08:29:23.869Z,857.94
2022-10-09T08:30:23.954Z,857.99
2022-10-09T08:31:23.955Z,857.92
2022-10-09T08:32:23.873Z,857.94
2022-10-09T08:33:23.821Z,857.97
2022-10-09T08:34:23.801Z,857.93
2022-10-09T08:35:23.805Z,857.95
2022-10-09T08:36:23.780Z,857.96
2022-10-09T08:37:23.822Z,857.97
2022-10-09T08:38:46.146Z,858.00
2022-10-09T08:39:24.748Z,857.99
2022-10-09T08:40:23.809Z,857.96
2022-10-09T08:41:23.727Z,858.03
2022-10-09T08:42:23.730Z,858.01
2022-10-09T08:43:23.708Z,857.99
2022-10-09T08:44:23.726Z,857.97
2022-10-09T08:45:23.686Z,858.03
2022-10-09T08:46:23.747Z,858.04
2022-10-09T08:47:23.730Z,858.04
2022-10-09T08:48:23.693Z,858.06
2022-10-09T08:49:23.697Z,858.08
2022-10-09T08:50:23.631Z,858.05
2022-10-09T08:51:23.627Z,858.07
2022-10-09T08:52:23.666Z,858.07
2022-10-09T08:53:23.622Z,858.11
2022-10-09T08:54:23.608Z,858.06
2022-10-09T08:55:23.575Z,858.11
2022-10-09T08:56:23.684Z,858.11
2022-10-09T08:57:23.555Z,858.09
2022-10-09T08:58:23.548Z,858.12
2022-10-09T08:59:23.527Z,858.09
2022-10-09T09:00:23.519Z,858.14
2022-10-09T09:01:23.531Z,858.16
2022-10-09T09:02:23.587Z,858.17
2022-10-09T09:03:23.484Z,858.21
2022-10-09T09:04:23.531Z,858.20
2022-10-09T09:05:23.460Z,858.26
2022-10-09T09:06:23.461Z,858.21
2022-10-09T09:07:23.448Z,858.23
2022-10-09T09:08:23.430Z,858.25
2022-10-09T09:09:23.490Z,858.20
2022-10-09T09:10:23.412Z,858.23
2022-10-09T09:11:23.419Z,858.27
2022-10-09T09:12:23.402Z,858.27
2022-10-09T09:13:23.374Z,858.24
2022-10-09T09:14:23.356Z,858.27
2022-10-09T09:15:23.349Z,858.29
2022-10-09T09:16:23.422Z,858.29
2022-10-09T09:17:23.398Z,858.30
2022-10-09T09:18:23.317Z,858.30
2022-10-09T09:19:23.312Z,858.31
2022-10-09T09:20:23.295Z,858.29
2022-10-09T09:21:23.281Z,858.31
2022-10-09T09:22:23.341Z,858.35
2022-10-09T09:23:23.276Z,858.40
2022-10-09T09:24:23.247Z,858.31
2022-10-09T09:25:23.269Z,858.34
2022-10-09T09:26:23.229Z,858.40
2022-10-09T09:27:23.214Z,858.37
2022-10-09T09:28:23.317Z,858.37
2022-10-09T09:29:23.192Z,858.34
2022-10-09T09:30:23.177Z,858.38
2022-10-09T09:31:23.241Z,858.35
2022-10-09T09:32:23.154Z,858.40
2022-10-09T09:33:23.156Z,858.36
2022-10-09T09:34:23.193Z,858.35
2022-10-09T09:35:23.123Z,858.36
2022-10-09T09:36:23.113Z,858.37
2022-10-09T09:37:23.104Z,858.37
2022-10-09T09:38:23.102Z,858.41
2022-10-09T09:40:08.311Z,858.37
2022-10-09T09:40:36.083Z,858.44
2022-10-09T09:41:24.075Z,858.39
2022-10-09T09:42:23.137Z,858.40
2022-10-09T09:43:23.031Z,858.44
2022-10-09T09:44:23.021Z,858.41
2022-10-09T09:45:23.017Z,858.43
2022-10-09T09:46:23.070Z,858.40
2022-10-09T09:47:22.988Z,858.45
2022-10-09T09:48:22.986Z,858.43
2022-10-09T09:49:22.964Z,858.42
2022-10-09T09:50:45.641Z,858.39
2022-10-09T09:51:28.522Z,858.42
2022-10-09T09:52:23.947Z,858.44
2022-10-09T09:53:22.920Z,858.43
2022-10-09T09:54:22.919Z,858.42
2022-10-09T09:55:22.899Z,858.39
2022-10-09T09:56:22.891Z,858.44
2022-10-09T09:57:22.899Z,858.40
2022-10-09T09:58:22.868Z,858.47
2022-10-09T09:59:22.864Z,858.46
2022-10-09T10:00:22.844Z,858.44
2022-10-09T10:01:22.855Z,858.45
2022-10-09T10:02:22.936Z,858.45
2022-10-09T10:03:22.809Z,858.43
2022-10-09T10:04:22.863Z,858.45
2022-10-09T10:05:22.798Z,858.49
2022-10-09T10:06:22.775Z,858.50
2022-10-09T10:07:22.764Z,858.48
2022-10-09T10:08:22.751Z,858.48
2022-10-09T10:09:22.745Z,858.43
2022-10-09T10:10:25.611Z,858.44
2022-10-09T10:11:22.726Z,858.48
2022-10-09T10:12:22.712Z,858.50
2022-10-09T10:13:22.728Z,858.45
2022-10-09T10:14:22.685Z,858.51
2022-10-09T10:15:22.862Z,858.53
2022-10-09T10:16:22.754Z,858.52
2022-10-09T10:17:22.670Z,858.53
2022-10-09T10:18:22.714Z,858.52
2022-10-09T10:19:22.638Z,858.51
2022-10-09T10:20:22.625Z,858.49
2022-10-09T10:21:22.623Z,858.53
2022-10-09T10:22:22.598Z,858.55
2022-10-09T10:23:22.663Z,858.56
2022-10-09T10:24:22.573Z,858.50
2022-10-09T10:25:22.563Z,858.52
2022-10-09T10:26:22.559Z,858.51
2022-10-09T10:27:22.555Z,858.54
2022-10-09T10:28:22.631Z,858.52
2022-10-09T10:29:22.678Z,858.50
2022-10-09T10:30:22.510Z,858.55
2022-10-09T10:31:22.561Z,858.53
2022-10-09T10:32:22.504Z,858.59
2022-10-09T10:33:22.490Z,858.56
2022-10-09T10:34:22.468Z,858.56
2022-10-09T10:35:22.733Z,858.57
2022-10-09T10:36:22.451Z,858.57
2022-10-09T10:37:22.434Z,858.50
2022-10-09T10:38:22.434Z,858.57
2022-10-09T10:39:22.412Z,858.57
2022-10-09T10:40:22.400Z,858.54
2022-10-09T10:41:22.399Z,858.59
2022-10-09T10:42:22.390Z,858.60
2022-10-09T10:43:22.366Z,858.55
2022-10-09T10:44:22.368Z,858.55
2022-10-09T10:45:22.369Z,858.54
2022-10-09T10:46:22.368Z,858.54
2022-10-09T10:47:22.328Z,858.59
2022-10-09T10:48:22.334Z,858.56
2022-10-09T10:49:22.305Z,858.57
2022-10-09T10:50:22.294Z,858.58
2022-10-09T10:51:22.281Z,858.54
2022-10-09T10:52:22.274Z,858.56
2022-10-09T10:53:22.293Z,858.56
2022-10-09T10:54:22.265Z,858.58
2022-10-09T10:55:22.235Z,858.57
2022-10-09T10:56:22.228Z,858.58
2022-10-09T10:57:22.216Z,858.53
2022-10-09T10:58:22.207Z,858.58
2022-10-09T10:59:22.282Z,858.57
2022-10-09T11:00:22.213Z,858.53
2022-10-09T11:01:22.316Z,858.55
2022-10-09T11:02:22.163Z,858.56
2022-10-09T11:03:22.228Z,858.55
2022-10-09T11:04:22.142Z,858.53
2022-10-09T11:05:22.188Z,858.53
2022-10-09T11:06:22.135Z,858.51
2022-10-09T11:07:22.108Z,858.46
2022-10-09T11:08:22.153Z,858.50
2022-10-09T11:09:22.094Z,858.52
2022-10-09T11:10:22.079Z,858.46
2022-10-09T11:11:22.137Z,858.48
2022-10-09T11:12:36.343Z,858.45
2022-10-09T11:13:23.055Z,858.45
2022-10-09T11:14:22.040Z,858.42
2022-10-09T11:15:22.024Z,858.42
2022-10-09T11:16:22.101Z,858.42
2022-10-09T11:17:22.058Z,858.40
2022-10-09T11:18:21.988Z,858.42
2022-10-09T11:19:21.991Z,858.40
2022-10-09T11:20:21.968Z,858.41
2022-10-09T11:21:21.960Z,858.41
2022-10-09T11:22:21.946Z,858.41
2022-10-09T11:23:21.938Z,858.37
2022-10-09T11:24:21.933Z,858.37
2022-10-09T11:25:21.909Z,858.35
2022-10-09T11:26:21.897Z,858.38
2022-10-09T11:27:21.888Z,858.33
2022-10-09T11:28:21.905Z,858.38
2022-10-09T11:29:21.882Z,858.33
2022-10-09T11:30:21.857Z,858.35
2022-10-09T11:31:21.973Z,858.34
2022-10-09T11:32:21.888Z,858.32
2022-10-09T11:33:21.849Z,858.31
2022-10-09T11:34:21.810Z,858.30
2022-10-09T11:35:21.820Z,858.31
2022-10-09T11:36:21.805Z,858.29
2022-10-09T11:37:21.777Z,858.28
2022-10-09T11:38:21.780Z,858.23
2022-10-09T11:39:21.752Z,858.24
2022-10-09T11:40:21.745Z,858.30
2022-10-09T11:41:21.817Z,858.25
2022-10-09T11:42:21.724Z,858.24
2022-10-09T11:43:21.719Z,858.24
2022-10-09T11:44:21.701Z,858.29
2022-10-09T11:45:21.685Z,858.19
2022-10-09T11:46:21.688Z,858.19
2022-10-09T11:47:21.729Z,858.19
2022-10-09T11:48:21.655Z,858.18
2022-10-09T11:49:21.773Z,858.14
2022-10-09T11:50:21.640Z,858.10
2022-10-09T11:51:21.625Z,858.17
2022-10-09T11:52:21.609Z,858.14
2022-10-09T11:53:21.664Z,858.14
2022-10-09T11:54:21.599Z,858.12
2022-10-09T11:55:21.593Z,858.13
2022-10-09T11:56:21.567Z,858.11
2022-10-09T11:57:21.560Z,858.09
2022-10-09T11:58:21.551Z,858.08
2022-10-09T11:59:21.545Z,858.11
2022-10-09T12:00:21.540Z,858.10
2022-10-09T12:01:21.583Z,858.08
2022-10-09T12:02:21.533Z,858.07
2022-10-09T12:03:21.498Z,858.06
2022-10-09T12:04:32.314Z,858.01
2022-10-09T12:05:22.526Z,858.02
2022-10-09T12:06:21.462Z,857.99
2022-10-09T12:07:21.476Z,857.99
2022-10-09T12:08:21.443Z,857.97
2022-10-09T12:09:21.430Z,857.98
2022-10-09T12:10:21.421Z,857.97
2022-10-09T12:11:21.414Z,858.00
2022-10-09T12:12:21.396Z,857.96
2022-10-09T12:13:21.400Z,857.98
2022-10-09T12:14:21.375Z,857.95
2022-10-09T12:15:21.366Z,857.92
2022-10-09T12:16:21.405Z,857.91
2022-10-09T12:17:21.351Z,857.93
2022-10-09T12:18:21.360Z,857.94
2022-10-09T12:19:21.325Z,857.91
2022-10-09T12:20:21.311Z,857.90
2022-10-09T12:21:21.329Z,857.88
2022-10-09T12:22:21.291Z,857.85
2022-10-09T12:23:26.821Z,857.87
2022-10-09T12:24:22.268Z,857.85
2022-10-09T12:25:21.259Z,857.86
2022-10-09T12:26:21.249Z,857.84
2022-10-09T12:27:21.242Z,857.82
2022-10-09T12:28:21.328Z,857.78